createdAt,value
2022-11-05T00:00:36.529Z,21.60
2022-11-05T00:01:57.430Z,20.38
2022-11-05T00:03:18.646Z,19.30
2022-11-05T00:04:39.980Z,20.92
2022-11-05T00:06:02.216Z,20.02
2022-11-05T00:07:39.997Z,22.52
2022-11-05T00:09:01.439Z,21.27
2022-11-05T00:10:14.601Z,20.40
2022-11-05T00:11:18.426Z,20.60
2022-11-05T00:12:39.410Z,19.92
2022-11-05T00:14:01.094Z,19.38
2022-11-05T00:15:22.130Z,19.60
2022-11-05T00:16:43.031Z,19.30
2022-11-05T00:17:45.505Z,20.10
2022-11-05T00:19:06.678Z,19.50
2022-11-05T00:20:13.762Z,18.85
2022-11-05T00:21:34.919Z,20.83
2022-11-05T00:22:56.198Z,19.48
2022-11-05T00:24:20.468Z,20.00
2022-11-05T00:25:26.647Z,20.27
2022-11-05T00:26:29.079Z,20.98
2022-11-05T00:27:33.476Z,18.95
2022-11-05T00:28:36.498Z,18.80
2022-11-05T00:29:41.188Z,18.00
2022-11-05T00:30:43.717Z,18.20
2022-11-05T00:31:46.610Z,18.73
2022-11-05T00:32:50.602Z,20.15
2022-11-05T00:33:53.136Z,18.58
2022-11-05T00:34:55.713Z,18.20
2022-11-05T00:35:58.292Z,18.38
2022-11-05T00:37:00.841Z,19.95
2022-11-05T00:38:03.331Z,20.90
2022-11-05T00:39:08.635Z,20.67
2022-11-05T00:40:12.119Z,18.90
2022-11-05T00:41:14.505Z,20.25
2022-11-05T00:42:35.678Z,20.40
2022-11-05T00:43:56.677Z,20.05
2022-11-05T00:45:02.236Z,19.77
2022-11-05T00:46:15.128Z,18.60
2022-11-05T00:47:36.517Z,18.65
2022-11-05T00:48:57.527Z,20.65
2022-11-05T00:50:00.375Z,18.35
2022-11-05T00:51:02.651Z,18.85
2022-11-05T00:52:23.448Z,18.75
2022-11-05T00:53:25.796Z,19.42
2022-11-05T00:54:28.052Z,20.10
2022-11-05T00:55:38.405Z,20.58
2022-11-05T00:56:40.858Z,19.42
2022-11-05T00:57:43.322Z,19.85
2022-11-05T00:58:45.871Z,20.58
2022-11-05T00:59:48.283Z,20.73
2022-11-05T01:00:53.014Z,18.52
2022-11-05T01:01:55.642Z,19.65
2022-11-05T01:03:03.827Z,19.98
2022-11-05T01:04:06.630Z,18.55
2022-11-05T01:05:09.639Z,19.30
2022-11-05T01:06:15.466Z,21.30
2022-11-05T01:07:18.811Z,19.85
2022-11-05T01:08:27.117Z,19.45
2022-11-05T01:09:29.754Z,18.85
2022-11-05T01:10:32.073Z,20.50
2022-11-05T01:11:35.521Z,20.73
2022-11-05T01:12:38.236Z,20.83
2022-11-05T01:13:40.823Z,18.80
2022-11-05T01:14:43.263Z,19.95
2022-11-05T01:15:46.328Z,18.58
2022-11-05T01:16:49.017Z,19.50
2022-11-05T01:17:52.535Z,20.27
2022-11-05T01:18:55.144Z,20.15
2022-11-05T01:19:57.541Z,20.25
2022-11-05T01:20:59.789Z,18.88
2022-11-05T01:22:02.466Z,19.63
2022-11-05T01:23:10.290Z,19.60
2022-11-05T01:24:15.657Z,20.95
2022-11-05T01:25:18.245Z,19.52
2022-11-05T01:26:20.648Z,19.90
2022-11-05T01:27:23.189Z,20.20
2022-11-05T01:29:29.676Z,19.63
2022-11-05T01:30:32.191Z,20.38
2022-11-05T01:31:34.629Z,21.30
2022-11-05T01:32:37.768Z,20.45
2022-11-05T01:33:40.446Z,19.42
2022-11-05T01:34:42.823Z,19.50
2022-11-05T01:35:53.645Z,19.48
2022-11-05T01:36:56.046Z,20.33
2022-11-05T01:37:58.477Z,18.92
2022-11-05T01:39:02.170Z,20.67
2022-11-05T01:40:05.367Z,21.25
2022-11-05T01:41:08.647Z,21.33
2022-11-05T01:42:32.496Z,19.95
2022-11-05T01:43:46.200Z,22.33
2022-11-05T01:45:15.173Z,19.10
2022-11-05T01:46:26.390Z,20.88
2022-11-05T01:47:53.611Z,20.83
2022-11-05T01:49:03.117Z,20.38
2022-11-05T01:50:13.732Z,20.27
2022-11-05T01:51:22.596Z,21.10
2022-11-05T01:52:27.156Z,19.67
2022-11-05T01:53:49.200Z,20.20
2022-11-05T01:54:51.738Z,21.25
2022-11-05T01:56:01.154Z,18.33
2022-11-05T01:57:09.323Z,19.73
2022-11-05T01:58:17.624Z,19.92
2022-11-05T01:59:29.343Z,20.42
2022-11-05T02:00:33.762Z,18.67
2022-11-05T02:01:36.142Z,19.58
2022-11-05T02:02:39.169Z,19.23
2022-11-05T02:03:47.948Z,19.73
2022-11-05T02:04:54.754Z,19.85
2022-11-05T02:06:00.340Z,19.65
2022-11-05T02:07:05.912Z,18.13
2022-11-05T02:08:15.867Z,18.95
2022-11-05T02:09:31.526Z,18.70
2022-11-05T02:10:34.011Z,20.08
2022-11-05T02:11:36.544Z,18.08
2022-11-05T02:12:42.738Z,19.00
2022-11-05T02:13:45.304Z,19.02
2022-11-05T02:14:47.670Z,19.02
2022-11-05T02:16:03.434Z,20.48
2022-11-05T02:17:12.661Z,21.38
2022-11-05T02:18:35.654Z,18.77
2022-11-05T02:20:04.340Z,19.52
2022-11-05T02:21:06.847Z,20.38
2022-11-05T02:22:28.009Z,20.92
2022-11-05T02:24:02.651Z,18.75
2022-11-05T02:25:14.323Z,19.20
2022-11-05T02:26:53.889Z,18.58
2022-11-05T02:28:10.245Z,19.45
2022-11-05T02:29:34.153Z,19.30
2022-11-05T02:30:47.171Z,18.90
2022-11-05T02:32:13.388Z,18.83
2022-11-05T02:33:42.123Z,19.83
2022-11-05T02:35:15.389Z,19.92
2022-11-05T02:36:26.943Z,19.05
2022-11-05T02:37:44.856Z,19.55
2022-11-05T02:39:16.622Z,20.67
2022-11-05T02:40:37.149Z,19.33
2022-11-05T02:41:54.487Z,20.05
2022-11-05T02:43:05.608Z,19.83
2022-11-05T02:44:14.398Z,20.17
2022-11-05T02:45:16.694Z,19.58
2022-11-05T02:46:39.222Z,21.05
2022-11-05T02:47:51.520Z,20.05
2022-11-05T02:49:18.148Z,20.67
2022-11-05T02:50:35.493Z,20.27
2022-11-05T02:52:11.702Z,19.98
2022-11-05T02:53:34.095Z,18.38
2022-11-05T02:54:43.322Z,19.48
2022-11-05T02:55:53.331Z,18.67
2022-11-05T02:56:57.082Z,20.17
2022-11-05T02:58:02.160Z,20.27
2022-11-05T02:59:04.549Z,20.02
2022-11-05T03:00:37.251Z,21.83
2022-11-05T03:01:42.883Z,19.92
2022-11-05T03:02:45.546Z,21.25
2022-11-05T03:03:53.880Z,21.20
2022-11-05T03:04:56.481Z,19.23
2022-11-05T03:06:37.287Z,20.55
2022-11-05T03:07:56.539Z,18.67
2022-11-05T03:09:36.486Z,20.02
2022-11-05T03:10:51.045Z,21.63
2022-11-05T03:12:11.146Z,21.63
2022-11-05T03:13:20.966Z,20.65
2022-11-05T03:14:31.714Z,19.40
2022-11-05T03:16:22.225Z,21.13
2022-11-05T03:17:30.431Z,20.10
2022-11-05T03:19:10.878Z,19.73
2022-11-05T03:20:18.461Z,19.60
2022-11-05T03:21:31.576Z,20.00
2022-11-05T03:22:46.825Z,20.27
2022-11-05T03:23:59.690Z,20.25
2022-11-05T03:25:08.740Z,20.60
2022-11-05T03:26:18.821Z,21.02
2022-11-05T03:27:27.471Z,20.85
2022-11-05T03:28:36.148Z,19.42
2022-11-05T03:29:49.920Z,18.73
2022-11-05T03:30:56.349Z,20.77
2022-11-05T03:32:02.038Z,18.60
2022-11-05T03:33:12.521Z,20.25
2022-11-05T03:34:18.713Z,21.23
2022-11-05T03:35:26.566Z,21.13
2022-11-05T03:36:34.439Z,19.88
2022-11-05T03:37:40.846Z,19.23
2022-11-05T03:38:47.206Z,19.08
2022-11-05T03:39:54.533Z,21.23
2022-11-05T03:41:02.409Z,19.90
2022-11-05T03:42:08.550Z,18.67
2022-11-05T03:43:13.224Z,20.23
2022-11-05T03:44:21.454Z,19.77
2022-11-05T03:45:35.750Z,21.42
2022-11-05T03:46:45.734Z,20.25
2022-11-05T03:47:58.176Z,21.33
2022-11-05T03:49:04.642Z,21.52
2022-11-05T03:50:20.616Z,20.15
2022-11-05T03:51:23.063Z,20.10
2022-11-05T03:52:29.879Z,21.25
2022-11-05T03:53:44.829Z,20.05
2022-11-05T03:54:47.435Z,21.13
2022-11-05T03:56:21.046Z,20.90
2022-11-05T03:57:32.934Z,21.35
2022-11-05T03:58:36.679Z,19.33
2022-11-05T03:59:43.472Z,20.92
2022-11-05T04:00:46.296Z,19.92
2022-11-05T04:01:50.018Z,19.75
2022-11-05T04:02:52.713Z,20.30
2022-11-05T04:03:55.275Z,20.63
2022-11-05T04:04:57.674Z,19.70
2022-11-05T04:06:18.522Z,20.63
2022-11-05T04:07:39.401Z,21.40
2022-11-05T04:09:00.396Z,19.17
2022-11-05T04:10:21.560Z,20.63
2022-11-05T04:11:42.640Z,21.25
2022-11-05T04:13:03.758Z,21.85
2022-11-05T04:14:10.047Z,21.95
2022-11-05T04:15:12.736Z,21.00
2022-11-05T04:16:33.658Z,21.20
2022-11-05T04:17:36.050Z,23.35
2022-11-05T04:18:46.143Z,24.02
2022-11-05T04:20:07.348Z,21.45
2022-11-05T04:21:29.581Z,21.83
2022-11-05T04:22:52.140Z,21.38
2022-11-05T04:24:10.495Z,21.00
2022-11-05T04:25:15.247Z,22.20
2022-11-05T04:26:17.583Z,22.02
2022-11-05T04:27:20.001Z,20.65
2022-11-05T04:28:44.568Z,21.95
2022-11-05T04:30:05.693Z,22.75
2022-11-05T04:31:11.426Z,22.15
2022-11-05T04:32:14.062Z,20.60
2022-11-05T04:33:20.888Z,22.60
2022-11-05T04:34:24.155Z,22.02
2022-11-05T04:35:34.972Z,20.77
2022-11-05T04:36:37.386Z,20.95
2022-11-05T04:37:39.797Z,21.27
2022-11-05T04:38:42.243Z,22.55
2022-11-05T04:39:44.684Z,20.98
2022-11-05T04:40:48.389Z,21.83
2022-11-05T04:41:50.758Z,20.70
2022-11-05T04:42:55.961Z,23.55
2022-11-05T04:43:58.887Z,23.08
2022-11-05T04:45:02.007Z,22.88
2022-11-05T04:46:04.429Z,23.80
2022-11-05T04:47:07.313Z,23.48
2022-11-05T04:48:10.153Z,23.48
2022-11-05T04:49:12.633Z,22.63
2022-11-05T04:50:15.380Z,23.52
2022-11-05T04:51:18.168Z,22.67
2022-11-05T04:52:20.791Z,22.80
2022-11-05T04:53:23.112Z,22.73
2022-11-05T04:54:25.496Z,24.25
2022-11-05T04:55:28.670Z,24.60
2022-11-05T04:56:31.179Z,24.50
2022-11-05T04:57:33.994Z,24.90
2022-11-05T04:58:42.322Z,24.42
2022-11-05T04:59:48.793Z,23.55
2022-11-05T05:00:51.456Z,22.55
2022-11-05T05:01:54.008Z,22.33
2022-11-05T05:02:56.428Z,24.38
2022-11-05T05:03:59.180Z,23.77
2022-11-05T05:05:01.634Z,23.88
2022-11-05T05:06:04.354Z,22.35
2022-11-05T05:07:06.814Z,24.70
2022-11-05T05:08:10.497Z,24.35
2022-11-05T05:09:12.967Z,22.67
2022-11-05T05:10:15.630Z,22.42
2022-11-05T05:11:20.744Z,23.80
2022-11-05T05:12:23.306Z,22.98
2022-11-05T05:13:25.691Z,23.42
2022-11-05T05:14:28.205Z,23.38
2022-11-05T05:15:31.211Z,24.75
2022-11-05T05:16:35.937Z,23.73
2022-11-05T05:17:38.485Z,24.58
2022-11-05T05:18:46.059Z,24.05
2022-11-05T05:20:07.555Z,24.00
2022-11-05T05:21:28.583Z,24.27
2022-11-05T05:22:31.461Z,24.70
2022-11-05T05:23:34.130Z,24.75
2022-11-05T05:24:36.717Z,25.52
2022-11-05T05:25:39.206Z,23.95
2022-11-05T05:26:47.362Z,23.60
2022-11-05T05:27:49.902Z,22.20
2022-11-05T05:28:55.712Z,24.60
2022-11-05T05:29:59.723Z,23.73
2022-11-05T05:31:02.249Z,26.23
2022-11-05T05:32:05.605Z,25.70
2022-11-05T05:33:08.157Z,23.30
2022-11-05T05:34:12.806Z,23.25
2022-11-05T05:35:15.877Z,24.77
2022-11-05T05:36:18.394Z,23.20
2022-11-05T05:37:20.834Z,24.55
2022-11-05T05:38:23.358Z,24.33
2022-11-05T05:39:27.182Z,25.92
2022-11-05T05:40:32.077Z,24.20
2022-11-05T05:41:39.279Z,24.85
2022-11-05T05:42:43.316Z,25.55
2022-11-05T05:43:46.070Z,25.20
2022-11-05T05:44:48.571Z,25.25
2022-11-05T05:45:51.166Z,26.63
2022-11-05T05:46:55.177Z,25.20
2022-11-05T05:47:57.912Z,25.65
2022-11-05T05:49:00.634Z,23.85
2022-11-05T05:50:03.412Z,23.50
2022-11-05T05:51:11.862Z,25.17
2022-11-05T05:52:16.924Z,24.15
2022-11-05T05:53:22.251Z,25.05
2022-11-05T05:54:31.905Z,25.40
2022-11-05T05:55:40.036Z,29.10
2022-11-05T05:56:45.787Z,32.17
2022-11-05T05:57:48.323Z,32.85
2022-11-05T05:58:50.821Z,28.85
2022-11-05T05:59:53.283Z,30.23
2022-11-05T06:00:55.835Z,31.60
2022-11-05T06:01:58.485Z,30.67
2022-11-05T06:03:01.645Z,29.27
2022-11-05T06:04:11.686Z,29.63
2022-11-05T06:05:14.557Z,29.90
2022-11-05T06:06:21.369Z,27.60
2022-11-05T06:07:26.132Z,27.40
2022-11-05T06:08:29.328Z,27.38
2022-11-05T06:09:31.882Z,26.00
2022-11-05T06:10:34.392Z,26.65
2022-11-05T06:11:37.316Z,26.95
2022-11-05T06:12:39.742Z,25.05
2022-11-05T06:13:42.235Z,27.38
2022-11-05T06:14:44.720Z,27.48
2022-11-05T06:15:47.314Z,26.35
2022-11-05T06:16:49.703Z,24.05
2022-11-05T06:17:52.398Z,27.38
2022-11-05T06:18:54.972Z,26.55
2022-11-05T06:19:59.683Z,25.13
2022-11-05T06:21:07.547Z,27.25
2022-11-05T06:22:11.328Z,27.02
2022-11-05T06:23:13.867Z,25.38
2022-11-05T06:24:16.518Z,27.02
2022-11-05T06:25:19.315Z,25.95
2022-11-05T06:26:26.774Z,26.02
2022-11-05T06:27:37.011Z,25.98
2022-11-05T06:28:42.591Z,27.00
2022-11-05T06:29:45.537Z,27.40
2022-11-05T06:30:55.177Z,25.08
2022-11-05T06:31:58.241Z,25.63
2022-11-05T06:33:05.710Z,24.60
2022-11-05T06:34:10.990Z,25.73
2022-11-05T06:35:13.970Z,26.17
2022-11-05T06:37:40.163Z,26.65
2022-11-05T06:38:45.166Z,26.98
2022-11-05T06:39:47.842Z,26.25
2022-11-05T06:40:50.338Z,27.20
2022-11-05T06:43:15.887Z,25.88
2022-11-05T06:44:18.509Z,26.00
2022-11-05T06:45:21.510Z,25.70
2022-11-05T06:46:28.389Z,24.88
2022-11-05T06:47:32.477Z,24.23
2022-11-05T06:48:35.280Z,24.38
2022-11-05T06:49:39.633Z,23.02
2022-11-05T06:50:46.802Z,26.88
2022-11-05T06:51:52.892Z,24.92
2022-11-05T06:52:59.389Z,25.42
2022-11-05T06:54:04.531Z,24.73
2022-11-05T06:55:12.105Z,26.95
2022-11-05T06:56:16.067Z,26.52
2022-11-05T06:57:18.721Z,25.08
2022-11-05T06:58:22.096Z,26.80
2022-11-05T06:59:24.728Z,24.27
2022-11-05T07:00:29.914Z,23.63
2022-11-05T07:01:33.138Z,26.80
2022-11-05T07:02:38.600Z,26.25
2022-11-05T07:07:11.513Z,26.40
2022-11-05T07:08:20.917Z,28.98
2022-11-05T07:09:56.482Z,27.55
2022-11-05T07:11:53.916Z,26.42
2022-11-05T07:13:17.845Z,25.98
2022-11-05T07:14:37.228Z,26.13
2022-11-05T07:15:42.395Z,26.02
2022-11-05T07:16:55.227Z,28.52
2022-11-05T07:18:15.490Z,25.25
2022-11-05T07:21:03.077Z,25.85
2022-11-05T07:22:29.341Z,27.52
2022-11-05T07:31:19.252Z,26.17
2022-11-05T07:32:32.347Z,26.90
2022-11-05T07:33:38.898Z,30.10
2022-11-05T07:34:49.901Z,31.08
2022-11-05T07:35:53.070Z,28.60
2022-11-05T07:36:58.386Z,30.58
2022-11-05T07:38:07.803Z,30.33
2022-11-05T07:39:48.881Z,29.83
2022-11-05T07:41:26.636Z,27.20
2022-11-05T07:43:10.207Z,27.38
2022-11-05T07:55:08.360Z,29.52
2022-11-05T07:56:14.203Z,37.10
2022-11-05T07:57:23.574Z,45.33
2022-11-05T07:58:34.941Z,40.45
2022-11-05T07:59:44.607Z,32.55
2022-11-05T08:00:54.560Z,32.03
2022-11-05T08:01:59.657Z,39.65
2022-11-05T08:03:16.088Z,30.38
2022-11-05T08:04:21.541Z,31.55
2022-11-05T08:05:27.211Z,31.63
2022-11-05T08:06:32.652Z,31.85
2022-11-05T08:07:40.291Z,33.42
2022-11-05T08:08:43.411Z,32.95
2022-11-05T08:09:46.071Z,35.65
2022-11-05T08:10:48.693Z,34.15
2022-11-05T08:11:53.299Z,39.75
2022-11-05T08:13:07.208Z,38.40
2022-11-05T08:14:15.247Z,35.72
2022-11-05T08:15:18.660Z,29.75
2022-11-05T08:16:21.201Z,30.55
2022-11-05T08:17:26.772Z,28.10
2022-11-05T08:18:33.601Z,31.98
2022-11-05T08:19:43.827Z,28.58
2022-11-05T08:20:50.652Z,30.30
2022-11-05T08:21:55.808Z,28.13
2022-11-05T08:23:01.302Z,25.98
2022-11-05T08:24:04.932Z,28.42
2022-11-05T08:25:15.281Z,31.08
2022-11-05T08:26:21.271Z,29.08
2022-11-05T08:27:33.361Z,30.55
2022-11-05T08:28:38.130Z,30.20
2022-11-05T08:29:41.777Z,28.35
2022-11-05T08:30:58.687Z,28.52
2022-11-05T08:32:11.548Z,31.42
2022-11-05T08:33:35.778Z,31.92
2022-11-05T08:34:45.963Z,29.67
2022-11-05T08:35:52.032Z,28.70
2022-11-05T08:36:54.624Z,30.08
2022-11-05T08:38:12.679Z,30.08
2022-11-05T08:39:17.044Z,29.80
2022-11-05T08:40:25.649Z,29.27
2022-11-05T08:41:31.324Z,27.48
2022-11-05T08:42:37.767Z,25.77
2022-11-05T08:43:52.247Z,26.17
2022-11-05T08:44:54.952Z,27.63
2022-11-05T08:46:07.152Z,26.42
2022-11-05T08:47:36.697Z,24.75
2022-11-05T08:48:47.733Z,25.25
2022-11-05T08:49:51.201Z,26.70
2022-11-05T08:50:58.224Z,26.58
2022-11-05T08:52:10.668Z,29.25
2022-11-05T08:53:20.466Z,29.40
2022-11-05T08:54:22.954Z,27.65
2022-11-05T08:55:31.729Z,26.55
2022-11-05T08:56:37.809Z,27.98
2022-11-05T08:57:41.736Z,28.45
2022-11-05T09:00:02.388Z,28.60
2022-11-05T09:01:06.216Z,27.25
2022-11-05T09:02:13.219Z,26.52
2022-11-05T09:04:50.325Z,25.77
2022-11-05T09:06:08.177Z,26.90
2022-11-05T09:07:20.486Z,29.25
2022-11-05T09:08:31.362Z,29.45
2022-11-05T09:09:35.971Z,28.50
2022-11-05T09:10:42.148Z,29.02
2022-11-05T09:12:11.225Z,27.85
2022-11-05T09:13:19.798Z,27.20
2022-11-05T09:14:31.573Z,29.30
2022-11-05T09:15:38.398Z,28.00
2022-11-05T09:16:49.392Z,27.63
2022-11-05T09:17:56.681Z,30.17
2022-11-05T09:21:03.803Z,27.50
2022-11-05T09:22:08.234Z,28.50
2022-11-05T09:23:18.873Z,28.30
2022-11-05T09:24:35.417Z,30.10
2022-11-05T09:25:42.903Z,28.88
2022-11-05T09:26:48.296Z,32.03
2022-11-05T09:28:32.827Z,30.52
2022-11-05T09:29:42.777Z,30.63
2022-11-05T09:31:26.600Z,31.27
2022-11-05T09:32:44.272Z,33.78
2022-11-05T09:33:52.646Z,37.72
2022-11-05T09:35:05.627Z,39.70
2022-11-05T09:36:51.017Z,39.90
2022-11-05T09:38:01.556Z,40.63
2022-11-05T09:41:24.095Z,32.40
2022-11-05T09:42:30.605Z,31.65
2022-11-05T09:43:45.805Z,30.45
2022-11-05T09:45:10.776Z,27.58
2022-11-05T09:46:41.362Z,26.50
2022-11-05T09:48:11.939Z,29.27
2022-11-05T09:49:51.087Z,29.77
2022-11-05T09:51:31.234Z,27.55
2022-11-05T09:54:46.441Z,28.85
2022-11-05T09:56:52.959Z,25.55
2022-11-05T09:57:00.017Z,27.00
2022-11-05T09:58:40.944Z,23.95
2022-11-05T10:00:13.765Z,28.17
2022-11-05T10:01:29.852Z,26.85
2022-11-05T10:03:01.532Z,28.55
2022-11-05T10:04:26.365Z,27.63
2022-11-05T10:05:40.256Z,26.25
2022-11-05T10:07:02.261Z,27.25
2022-11-05T10:08:17.254Z,26.98
2022-11-05T10:09:30.415Z,26.00
2022-11-05T10:10:42.059Z,25.95
2022-11-05T10:11:53.605Z,26.15
2022-11-05T10:13:13.713Z,26.98
2022-11-05T10:14:24.026Z,25.98
2022-11-05T10:15:31.871Z,28.25
2022-11-05T10:16:43.666Z,25.33
2022-11-05T10:17:51.418Z,26.02
2022-11-05T10:19:17.150Z,27.92
2022-11-05T10:20:23.691Z,27.55
2022-11-05T10:21:51.405Z,27.65
2022-11-05T10:22:55.459Z,25.60
2022-11-05T10:23:58.695Z,27.25
2022-11-05T10:25:01.174Z,26.95
2022-11-05T10:26:08.145Z,27.80
2022-11-05T10:27:23.656Z,26.73
2022-11-05T10:28:32.686Z,27.33
2022-11-05T10:29:36.364Z,27.55
2022-11-05T10:30:38.895Z,25.85
2022-11-05T10:31:41.490Z,30.70
2022-11-05T10:32:45.548Z,31.65
2022-11-05T10:35:06.690Z,27.75
2022-11-05T10:36:32.336Z,28.77
2022-11-05T10:37:40.653Z,29.63
2022-11-05T10:38:43.806Z,26.23
2022-11-05T10:39:46.619Z,27.42
2022-11-05T10:41:14.047Z,27.55
2022-11-05T10:42:35.023Z,28.48
2022-11-05T10:43:42.378Z,27.20
2022-11-05T10:44:52.284Z,28.35
2022-11-05T10:46:06.476Z,29.30
2022-11-05T10:47:11.918Z,27.67
2022-11-05T10:48:31.364Z,29.13
2022-11-05T10:49:42.389Z,29.38
2022-11-05T10:50:45.251Z,29.08
2022-11-05T10:51:57.394Z,27.67
2022-11-05T10:53:46.013Z,27.75
2022-11-05T10:54:51.247Z,28.20
2022-11-05T10:55:55.019Z,28.58
2022-11-05T10:56:57.998Z,28.00
2022-11-05T10:58:15.790Z,25.17
2022-11-05T10:59:21.043Z,27.52
2022-11-05T11:00:28.764Z,28.58
2022-11-05T11:01:32.713Z,28.33
2022-11-05T11:03:38.402Z,29.33
2022-11-05T11:04:41.135Z,28.00
2022-11-05T11:05:44.001Z,32.22
2022-11-05T11:06:55.610Z,29.80
2022-11-05T11:08:07.919Z,32.15
2022-11-05T11:09:22.028Z,30.58
2022-11-05T11:10:26.013Z,31.55
2022-11-05T11:11:38.011Z,41.30
2022-11-05T11:12:43.502Z,42.92
2022-11-05T11:13:59.476Z,38.40
2022-11-05T11:15:26.340Z,39.38
2022-11-05T11:16:35.027Z,48.03
2022-11-05T11:17:37.727Z,40.40
2022-11-05T11:18:43.086Z,52.13
2022-11-05T11:19:45.627Z,41.95
2022-11-05T11:20:48.221Z,36.15
2022-11-05T11:22:05.408Z,35.33
2022-11-05T11:23:15.981Z,31.45
2022-11-05T11:24:27.611Z,31.05
2022-11-05T11:26:02.082Z,32.30
2022-11-05T11:27:14.961Z,30.08
2022-11-05T11:28:29.862Z,34.00
2022-11-05T11:29:41.904Z,30.38
2022-11-05T11:30:55.402Z,31.33
2022-11-05T11:32:00.634Z,30.38
2022-11-05T11:33:09.649Z,30.80
2022-11-05T11:34:19.043Z,28.70
2022-11-05T11:35:24.384Z,32.17
2022-11-05T11:36:41.635Z,28.35
2022-11-05T11:37:44.664Z,29.13
2022-11-05T11:38:47.226Z,30.80
2022-11-05T11:39:57.858Z,32.58
2022-11-05T11:42:19.359Z,30.23
2022-11-05T11:43:29.636Z,28.85
2022-11-05T11:45:53.526Z,27.65
2022-11-05T11:47:05.610Z,31.17
2022-11-05T11:48:15.118Z,29.27
2022-11-05T11:49:38.301Z,28.98
2022-11-05T11:50:43.325Z,31.65
2022-11-05T11:51:50.012Z,28.63
2022-11-05T11:53:16.189Z,30.95
2022-11-05T11:54:21.438Z,28.73
2022-11-05T11:55:24.025Z,31.05
2022-11-05T11:56:27.466Z,31.17
2022-11-05T11:57:29.965Z,30.42
2022-11-05T11:58:40.251Z,29.60
2022-11-05T12:00:07.187Z,30.25
2022-11-05T12:01:35.019Z,30.60
2022-11-05T12:02:53.911Z,28.95
2022-11-05T12:04:11.420Z,27.75
2022-11-05T12:05:34.396Z,30.13
2022-11-05T12:06:53.148Z,32.33
2022-11-05T12:08:01.738Z,31.77
2022-11-05T12:09:31.255Z,29.10
2022-11-05T12:10:39.857Z,36.30
2022-11-05T12:12:02.761Z,36.85
2022-11-05T12:14:32.836Z,33.35
2022-11-05T12:15:41.436Z,38.05
2022-11-05T12:17:08.817Z,37.13
2022-11-05T12:18:31.363Z,38.40
2022-11-05T12:19:53.597Z,40.47
2022-11-05T12:21:14.177Z,36.58
2022-11-05T12:22:30.738Z,36.72
2022-11-05T12:23:35.605Z,33.65
2022-11-05T12:25:04.724Z,30.83
2022-11-05T12:26:56.762Z,31.15
2022-11-05T12:29:12.300Z,35.58
2022-11-05T12:30:12.989Z,32.55
2022-11-05T12:31:21.552Z,27.92
2022-11-05T12:32:46.147Z,30.70
2022-11-05T12:34:03.622Z,30.05
2022-11-05T12:35:48.968Z,28.85
2022-11-05T12:37:20.165Z,29.27
2022-11-05T12:38:50.565Z,29.85
2022-11-05T12:39:52.883Z,30.83
2022-11-05T12:41:18.466Z,31.73
2022-11-05T12:42:52.033Z,29.20
2022-11-05T12:44:21.657Z,29.67
2022-11-05T12:45:52.658Z,28.73
2022-11-05T12:47:18.508Z,32.03
2022-11-05T12:48:39.358Z,34.03
2022-11-05T12:50:04.645Z,30.00
2022-11-05T12:51:27.052Z,29.85
2022-11-05T12:52:29.547Z,28.73
2022-11-05T12:54:01.311Z,28.92
2022-11-05T12:55:15.487Z,29.38
2022-11-05T12:56:53.403Z,30.15
2022-11-05T12:58:10.956Z,28.38
2022-11-05T12:59:37.449Z,30.60
2022-11-05T13:00:47.865Z,28.13
2022-11-05T13:01:55.080Z,28.27
2022-11-05T13:03:43.105Z,29.05
2022-11-05T13:06:06.315Z,25.77
2022-11-05T13:07:14.446Z,28.02
2022-11-05T13:08:25.555Z,27.58
2022-11-05T13:09:51.747Z,28.38
2022-11-05T13:11:03.709Z,27.23
2022-11-05T13:12:13.199Z,26.65
2022-11-05T13:13:40.050Z,27.45
2022-11-05T13:14:45.488Z,26.85
2022-11-05T13:15:59.415Z,29.98
2022-11-05T13:17:14.276Z,31.00
2022-11-05T13:18:46.145Z,33.83
2022-11-05T13:19:55.697Z,32.63
2022-11-05T13:21:00.622Z,34.65
2022-11-05T13:22:17.652Z,33.70
2022-11-05T13:23:26.654Z,33.78
2022-11-05T13:24:49.040Z,32.08
2022-11-05T13:25:58.273Z,28.40
2022-11-05T13:27:25.310Z,29.58
2022-11-05T13:29:02.554Z,25.42
2022-11-05T13:30:07.575Z,27.02
2022-11-05T13:31:15.992Z,25.33
2022-11-05T13:32:25.267Z,26.88
2022-11-05T13:33:33.686Z,26.92
2022-11-05T13:34:38.822Z,27.65
2022-11-05T13:36:23.348Z,27.85
2022-11-05T13:37:51.568Z,27.10
2022-11-05T13:39:00.251Z,28.45
2022-11-05T13:40:09.411Z,29.60
2022-11-05T13:41:21.090Z,28.73
2022-11-05T13:42:32.995Z,26.48
2022-11-05T13:44:06.701Z,27.45
2022-11-05T13:45:28.240Z,25.15
2022-11-05T13:46:53.869Z,27.50
2022-11-05T13:48:34.348Z,27.33
2022-11-05T13:49:53.641Z,26.25
2022-11-05T13:51:17.170Z,26.00
2022-11-05T13:52:28.640Z,27.27
2022-11-05T13:53:57.706Z,31.58
2022-11-05T13:55:31.373Z,41.38
2022-11-05T13:56:54.080Z,38.72
2022-11-05T13:58:34.520Z,37.17
2022-11-05T14:00:03.894Z,38.42
2022-11-05T14:01:34.032Z,38.88
2022-11-05T14:02:48.023Z,38.10
2022-11-05T14:03:54.451Z,34.45
2022-11-05T14:05:01.819Z,29.98
2022-11-05T14:06:10.584Z,28.65
2022-11-05T14:07:19.995Z,29.85
2022-11-05T14:08:28.400Z,26.98
2022-11-05T14:09:35.312Z,32.70
2022-11-05T14:10:45.081Z,29.35
2022-11-05T14:11:56.452Z,26.67
2022-11-05T14:13:03.659Z,27.00
2022-11-05T14:14:10.262Z,28.50
2022-11-05T14:15:16.372Z,26.85
2022-11-05T14:16:22.363Z,27.17
2022-11-05T14:17:33.451Z,27.70
2022-11-05T14:18:42.846Z,25.85
2022-11-05T14:19:51.609Z,27.80
2022-11-05T14:21:00.886Z,26.40
2022-11-05T14:22:33.201Z,27.08
2022-11-05T14:23:49.510Z,26.13
2022-11-05T14:24:52.227Z,30.77
2022-11-05T14:25:57.935Z,30.15
2022-11-05T14:27:00.550Z,26.35
2022-11-05T14:28:23.616Z,28.30
2022-11-05T14:29:38.163Z,27.80
2022-11-05T14:30:42.546Z,26.92
2022-11-05T14:32:08.462Z,32.67
2022-11-05T14:33:27.730Z,28.88
2022-11-05T14:34:44.680Z,28.73
2022-11-05T14:35:49.244Z,27.98
2022-11-05T14:37:33.802Z,25.17
2022-11-05T14:38:37.226Z,28.70
2022-11-05T14:39:41.379Z,25.27
2022-11-05T14:41:56.075Z,26.42
2022-11-05T14:43:18.111Z,26.30
2022-11-05T14:44:22.431Z,22.02
2022-11-05T14:45:37.576Z,25.75
2022-11-05T14:46:47.282Z,22.85
2022-11-05T14:47:54.728Z,21.98
2022-11-05T14:49:08.137Z,24.50
2022-11-05T14:50:26.035Z,24.55
2022-11-05T14:51:37.329Z,20.17
2022-11-05T14:52:52.467Z,20.13
2022-11-05T14:54:21.303Z,21.33
2022-11-05T14:55:40.374Z,19.42
2022-11-05T14:56:56.359Z,20.42
2022-11-05T14:57:59.785Z,19.30
2022-11-05T14:59:24.412Z,20.60
2022-11-05T15:00:28.702Z,19.17
2022-11-05T15:01:52.033Z,19.35
2022-11-05T15:03:01.690Z,20.05
2022-11-05T15:04:18.244Z,17.33
2022-11-05T15:07:24.473Z,16.75
2022-11-05T15:08:38.546Z,17.05
2022-11-05T15:09:43.042Z,17.73
2022-11-05T15:10:49.377Z,16.98
2022-11-05T15:12:03.034Z,18.13
2022-11-05T15:13:06.700Z,18.27
2022-11-05T15:14:41.016Z,17.75
2022-11-05T15:15:47.799Z,16.50
2022-11-05T15:16:55.620Z,18.80
2022-11-05T15:18:15.227Z,17.83
2022-11-05T15:19:26.541Z,16.45
2022-11-05T15:20:40.737Z,17.75
2022-11-05T15:21:49.108Z,17.77
2022-11-05T15:22:58.527Z,18.20
2022-11-05T15:24:04.172Z,17.52
2022-11-05T15:25:25.455Z,17.85
2022-11-05T15:26:36.612Z,17.50
2022-11-05T15:27:51.600Z,19.02
2022-11-05T15:28:56.344Z,18.20
2022-11-05T15:30:18.152Z,15.13
2022-11-05T15:31:50.502Z,16.75
2022-11-05T15:32:54.377Z,16.80
2022-11-05T15:34:27.387Z,16.42
2022-11-05T15:35:30.670Z,16.98
2022-11-05T15:36:35.018Z,19.27
2022-11-05T15:37:53.424Z,18.02
2022-11-05T15:39:29.322Z,19.02
2022-11-05T15:40:33.763Z,14.32
2022-11-05T15:41:36.963Z,13.40
2022-11-05T15:43:10.425Z,14.00
2022-11-05T15:44:39.752Z,13.98
2022-11-05T15:46:15.036Z,13.63
2022-11-05T15:47:48.419Z,13.20
2022-11-05T15:49:33.263Z,12.25
2022-11-05T15:50:44.142Z,16.27
2022-11-05T15:52:11.704Z,16.15
2022-11-05T15:54:01.884Z,13.32
2022-11-05T15:55:13.396Z,11.23
2022-11-05T15:56:50.902Z,9.60
2022-11-05T15:58:22.090Z,9.75
2022-11-05T15:59:52.090Z,6.43
2022-11-05T16:01:32.503Z,7.30
2022-11-05T16:02:57.428Z,6.55
2022-11-05T16:04:21.565Z,5.82
2022-11-05T16:05:37.244Z,6.47
2022-11-05T16:08:50.525Z,5.95
2022-11-05T16:09:59.330Z,5.97
2022-11-05T16:11:04.512Z,6.05
2022-11-05T16:12:19.986Z,5.13
2022-11-05T16:13:32.219Z,5.63
2022-11-05T16:14:36.699Z,5.60
2022-11-05T16:15:39.791Z,6.60